Sheridan, IN (46069)

9:40 PM EDT on September 21, 2014 (GMT -0400)
1200 E 900 N | Change Station
CLOSE
Current Station
Personal Weather Station
Location: Sheridan, IN
Elevation: 948 ft
Nearby Weather Stations

Elev 948 ft 40.17 °N, 86.24 °W | Updated 1 minute ago

Overcast
Overcast
53.4 °F
Feels Like 53.4 °F
N
0.0
Wind Variable Wind from NNE

Today
High -- | Low -- °F
--% Chance of Precip.
Yesterday
High -- | Low -- °F
Precip. -- in
7:31 AM 7:43 PM
Waning Crescent, 4% visible
Pressure 30.06 in
Visibility 10.0 miles
Clouds Scattered Clouds 3800 ft
Mostly Cloudy 4600 ft
Mostly Cloudy 5000 ft
Dew Point 51 °F
Humidity 91%
Rainfall 0.06 in
Snow Depth Not available.
UV 0 out of 12
Pollen 5.40 out of 12
Ozone Good
PM2.5 Good
Flu Activity Not available.
METAR KTYQ 220135Z AUTO 35005KT 10SM SCT038 BKN046 BKN050 13/10 A3006 RMK AO2 T01310095

More Conditions Fewer Conditions

Pressure 30.06 in
Visibility 10.0 miles
Clouds Scattered Clouds 3800 ft
Mostly Cloudy 4600 ft
Mostly Cloudy 5000 ft
Dew Point 51 °F
Humidity 91%
Rainfall 0.06 in
Snow Depth Not available.
UV 0 out of 12
Pollen 5.40 out of 12
Ozone Good
PM2.5 Good
Flu Activity Not available.
METAR KTYQ 220135Z AUTO 35005KT 10SM SCT038 BKN046 BKN050 13/10 A3006 RMK AO2 T01310095

More Conditions Fewer Conditions

10-Day Weather Forecast

Almanac

Astronomy

Sep. 21, 2014 Rise Set
Actual Time 7:31 AM EDT 7:43 PM EDT
Civil Twilight 7:04 AM EDT 8:10 PM EDT
Nautical Twilight 6:32 AM EDT 8:42 PM EDT
Astronomical Twilight 6:00 AM EDT 9:14 PM EDT
Moon 5:04 AM EDT (9/21) 6:19 PM EDT (9/21)
Length of Visible Light 13h 06m
Length of Day
12h 12m
Tomorrow will be 2m 37s shorter.
Waning Crescent, 4% of the Moon is Illuminated
Today
Waning Crescent
Sep 24
New
Oct 1
First Quarter
Oct 8
Full
Oct 15
Last Quarter

Today's Extremes

State Highs State Lows

Community

WunderPhotos

Upload Photos

1,755,347 photos uploaded!

WunderBlogs® & News

Nearby

Air Quality

  Air Quality AQ Index Pollutant
Yesterday Moderate
PM2.5
Yesterday Good
OZONE
Current Good
OZONE
Current Good
PM2.5
Sunday Good
PM2.5
Sunday Good
OZONE
Monday Good
PM2.5
Monday Good
OZONE

Snow Depth

Station Depth Elevation
No new snow has been reported.

Earthquake Activity

City Distance Mag. Time & Date
No recent earthquake activity has been reported nearby.
Minimum magnitude displayed is 2.5.

Coastal Water Temperatures

Place Temperature
No Stations Reporting

Nearby Weather Stations